createdAt,value
2022-11-03T00:01:40.465Z,3.60
2022-11-03T00:04:08.703Z,3.92
2022-11-03T00:06:35.745Z,4.30
2022-11-03T00:09:05.257Z,4.07
2022-11-03T00:11:36.211Z,3.83
2022-11-03T00:14:03.465Z,3.83
2022-11-03T00:16:30.698Z,2.85
2022-11-03T00:18:57.320Z,3.40
2022-11-03T00:21:24.317Z,3.60
2022-11-03T00:23:51.908Z,3.67
2022-11-03T00:26:23.967Z,3.58
2022-11-03T00:28:52.727Z,3.30
2022-11-03T00:31:24.904Z,4.05
2022-11-03T00:33:51.931Z,3.28
2022-11-03T00:36:21.309Z,4.60
2022-11-03T00:38:48.159Z,3.38
2022-11-03T00:41:15.490Z,3.42
2022-11-03T00:43:42.687Z,3.53
2022-11-03T00:46:09.866Z,3.35
2022-11-03T00:48:37.788Z,3.42
2022-11-03T00:51:14.628Z,2.95
2022-11-03T00:53:50.637Z,3.30
2022-11-03T00:56:22.741Z,3.33
2022-11-03T00:58:51.155Z,3.72
2022-11-03T01:01:20.479Z,3.92
2022-11-03T01:04:09.036Z,3.67
2022-11-03T01:06:50.099Z,3.28
2022-11-03T01:09:17.414Z,3.42
2022-11-03T01:11:53.171Z,3.70
2022-11-03T01:14:19.801Z,3.67
2022-11-03T01:16:46.258Z,3.60
2022-11-03T01:19:12.733Z,3.50
2022-11-03T01:21:39.197Z,2.60
2022-11-03T01:24:05.910Z,3.17
2022-11-03T01:26:32.594Z,3.25
2022-11-03T01:29:00.280Z,2.75
2022-11-03T01:31:27.992Z,2.80
2022-11-03T01:33:56.020Z,2.70
2022-11-03T01:36:22.995Z,2.80
2022-11-03T01:38:49.958Z,3.45
2022-11-03T01:41:19.704Z,2.85
2022-11-03T01:44:10.209Z,2.95
2022-11-03T01:46:44.236Z,2.90
2022-11-03T01:49:17.862Z,3.53
2022-11-03T01:51:48.829Z,3.00
2022-11-03T01:54:19.713Z,3.03
2022-11-03T01:56:49.007Z,2.90
2022-11-03T01:59:17.750Z,2.50
2022-11-03T02:01:45.864Z,2.97
2022-11-03T02:04:22.858Z,2.90
2022-11-03T02:07:13.598Z,3.60
2022-11-03T02:09:40.107Z,2.75
2022-11-03T02:12:08.773Z,3.28
2022-11-03T02:14:39.426Z,3.15
2022-11-03T02:17:11.141Z,2.83
2022-11-03T02:20:17.458Z,2.67
2022-11-03T02:23:08.923Z,2.42
2022-11-03T02:25:52.206Z,2.40
2022-11-03T02:28:25.349Z,2.78
2022-11-03T02:31:09.754Z,3.00
2022-11-03T02:33:57.728Z,2.42
2022-11-03T02:36:55.929Z,2.65
2022-11-03T02:39:29.608Z,2.05
2022-11-03T02:41:57.342Z,2.40
2022-11-03T02:44:25.719Z,2.50
2022-11-03T02:46:56.907Z,2.40
2022-11-03T02:49:23.386Z,2.58
2022-11-03T02:52:01.995Z,2.88
2022-11-03T02:54:38.425Z,2.65
2022-11-03T02:57:19.508Z,2.78
2022-11-03T02:59:56.661Z,2.90
2022-11-03T03:02:32.654Z,2.58
2022-11-03T03:05:03.662Z,2.92
2022-11-03T03:07:37.514Z,2.63
2022-11-03T03:10:12.336Z,2.83
2022-11-03T03:12:43.318Z,2.80
2022-11-03T03:15:09.946Z,2.28
2022-11-03T03:17:53.758Z,2.35
2022-11-03T03:20:27.651Z,2.95
2022-11-03T03:23:18.637Z,2.33
2022-11-03T03:26:04.918Z,3.08
2022-11-03T03:28:43.224Z,2.88
2022-11-03T03:31:13.108Z,2.83
2022-11-03T03:33:43.471Z,3.00
2022-11-03T03:36:19.507Z,3.50
2022-11-03T03:38:54.448Z,3.03
2022-11-03T03:41:24.320Z,3.55
2022-11-03T03:43:54.417Z,2.97
2022-11-03T03:46:23.187Z,3.25
2022-11-03T03:48:49.725Z,3.42
2022-11-03T03:51:22.288Z,2.78
2022-11-03T03:53:53.479Z,2.95
2022-11-03T03:56:38.494Z,3.42
2022-11-03T03:59:04.975Z,2.88
2022-11-03T04:01:31.471Z,2.80
2022-11-03T04:03:58.015Z,2.80
2022-11-03T04:06:24.465Z,3.55
2022-11-03T04:08:50.941Z,3.10
2022-11-03T04:11:36.342Z,2.70
2022-11-03T04:14:21.123Z,2.58
2022-11-03T04:17:06.027Z,2.90
2022-11-03T04:19:51.241Z,3.05
2022-11-03T04:22:17.867Z,3.13
2022-11-03T04:24:49.533Z,2.70
2022-11-03T04:30:16.414Z,2.97
2022-11-03T04:32:45.123Z,2.75
2022-11-03T04:35:16.248Z,3.10
2022-11-03T04:37:47.502Z,3.00
2022-11-03T04:42:42.984Z,3.45
2022-11-03T04:45:21.636Z,3.22
2022-11-03T04:47:48.126Z,2.83
2022-11-03T04:50:19.186Z,2.80
2022-11-03T04:52:47.174Z,3.28
2022-11-03T04:55:16.684Z,3.28
2022-11-03T04:57:43.916Z,2.90
2022-11-03T05:00:15.709Z,2.95
2022-11-03T05:02:43.165Z,2.78
2022-11-03T05:05:24.985Z,3.30
2022-11-03T05:07:53.799Z,3.10
2022-11-03T05:10:25.300Z,2.90
2022-11-03T05:12:53.708Z,2.78
2022-11-03T05:15:28.784Z,2.60
2022-11-03T05:17:56.327Z,3.13
2022-11-03T05:20:35.707Z,2.95
2022-11-03T05:23:04.182Z,2.45
2022-11-03T05:25:37.023Z,2.97
2022-11-03T05:28:04.113Z,3.00
2022-11-03T05:30:30.938Z,3.38
2022-11-03T05:32:57.980Z,2.75
2022-11-03T05:35:24.389Z,3.60
2022-11-03T05:37:51.255Z,3.03
2022-11-03T05:40:23.872Z,3.25
2022-11-03T05:42:58.825Z,3.47
2022-11-03T05:45:32.195Z,3.33
2022-11-03T05:48:01.427Z,2.97
2022-11-03T05:50:35.104Z,3.40
2022-11-03T05:53:19.599Z,3.00
2022-11-03T05:55:46.156Z,3.30
2022-11-03T05:58:24.003Z,3.28
2022-11-03T06:00:50.747Z,3.35
2022-11-03T06:03:21.777Z,3.33
2022-11-03T06:05:48.290Z,3.40
2022-11-03T06:08:19.973Z,3.13
2022-11-03T06:13:30.347Z,3.20
2022-11-03T06:16:01.237Z,3.25
2022-11-03T06:18:33.031Z,2.88
2022-11-03T06:21:07.424Z,2.90
2022-11-03T06:23:35.721Z,3.53
2022-11-03T06:26:03.885Z,3.45
2022-11-03T06:28:36.797Z,3.05
2022-11-03T06:31:07.136Z,2.80
2022-11-03T06:33:35.393Z,2.90
2022-11-03T06:36:18.265Z,3.10
2022-11-03T06:38:51.502Z,2.67
2022-11-03T06:41:24.712Z,2.80
2022-11-03T06:43:52.051Z,2.92
2022-11-03T06:46:24.177Z,2.80
2022-11-03T06:49:00.368Z,3.20
2022-11-03T06:51:31.096Z,3.38
2022-11-03T06:54:01.360Z,3.28
2022-11-03T06:56:35.308Z,3.08
2022-11-03T06:59:01.754Z,3.13
2022-11-03T07:01:33.431Z,3.00
2022-11-03T07:04:12.881Z,3.03
2022-11-03T07:06:39.421Z,3.38
2022-11-03T07:09:13.164Z,3.45
2022-11-03T07:11:49.837Z,3.42
2022-11-03T07:14:19.640Z,3.15
2022-11-03T07:17:05.704Z,3.40
2022-11-03T07:19:43.718Z,2.63
2022-11-03T07:22:23.745Z,3.47
2022-11-03T07:24:54.199Z,3.90
2022-11-03T07:27:29.285Z,3.53
2022-11-03T07:30:19.163Z,3.83
2022-11-03T07:32:46.126Z,3.17
2022-11-03T07:35:18.482Z,3.88
2022-11-03T07:37:46.527Z,4.57
2022-11-03T07:40:23.377Z,4.15
2022-11-03T07:42:50.803Z,4.88
2022-11-03T07:45:45.096Z,4.57
2022-11-03T07:48:26.867Z,4.97
2022-11-03T07:50:59.205Z,4.43
2022-11-03T07:53:37.133Z,4.72
2022-11-03T07:58:42.562Z,4.68
2022-11-03T08:01:47.724Z,4.13
2022-11-03T08:04:20.237Z,5.65
2022-11-03T08:06:50.049Z,5.50
2022-11-03T08:09:16.590Z,4.82
2022-11-03T08:11:44.908Z,5.18
2022-11-03T08:14:11.796Z,6.72
2022-11-03T08:16:38.916Z,4.88
2022-11-03T08:19:06.819Z,4.65
2022-11-03T08:21:33.546Z,5.05
2022-11-03T08:24:00.198Z,4.95
2022-11-03T08:26:26.963Z,4.80
2022-11-03T08:28:53.532Z,4.38
2022-11-03T08:31:20.038Z,4.38
2022-11-03T08:33:46.458Z,5.97
2022-11-03T08:36:13.122Z,4.78
2022-11-03T08:38:39.562Z,5.05
2022-11-03T08:41:06.152Z,5.53
2022-11-03T08:43:32.582Z,5.78
2022-11-03T08:46:09.659Z,5.20
2022-11-03T08:48:42.123Z,4.93
2022-11-03T08:51:10.223Z,4.88
2022-11-03T08:53:38.369Z,4.57
2022-11-03T08:56:10.259Z,4.80
2022-11-03T08:58:39.091Z,4.78
2022-11-03T09:01:05.664Z,5.03
2022-11-03T09:03:32.166Z,4.47
2022-11-03T09:05:58.734Z,4.03
2022-11-03T09:11:11.578Z,4.28
2022-11-03T09:13:37.990Z,5.70
2022-11-03T09:16:04.571Z,4.13
2022-11-03T09:18:32.201Z,4.05
2022-11-03T09:20:58.628Z,4.32
2022-11-03T09:23:25.191Z,4.35
2022-11-03T09:25:51.612Z,3.95
2022-11-03T09:28:18.453Z,4.90
2022-11-03T09:30:44.951Z,3.92
2022-11-03T09:33:11.376Z,4.30
2022-11-03T09:35:37.796Z,5.63
2022-11-03T09:38:04.994Z,4.03
2022-11-03T09:40:31.570Z,4.45
2022-11-03T09:42:58.014Z,5.55
2022-11-03T09:45:25.051Z,5.28
2022-11-03T09:47:51.749Z,4.35
2022-11-03T09:50:20.062Z,4.28
2022-11-03T09:52:51.576Z,3.20
2022-11-03T09:55:24.548Z,4.07
2022-11-03T09:57:54.371Z,4.07
2022-11-03T10:00:23.141Z,4.13
2022-11-03T10:02:50.418Z,4.32
2022-11-03T10:05:24.671Z,3.30
2022-11-03T10:07:56.602Z,4.22
2022-11-03T10:10:23.518Z,4.28
2022-11-03T10:12:53.047Z,3.85
2022-11-03T10:15:22.560Z,3.63
2022-11-03T10:17:50.555Z,3.78
2022-11-03T10:20:20.554Z,3.45
2022-11-03T10:22:50.567Z,2.67
2022-11-03T10:25:42.833Z,2.95
2022-11-03T10:28:24.205Z,3.10
2022-11-03T10:31:12.732Z,2.80
2022-11-03T10:33:52.448Z,2.90
2022-11-03T10:36:18.845Z,2.90
2022-11-03T10:38:45.700Z,2.50
2022-11-03T10:41:22.193Z,2.33
2022-11-03T10:44:05.943Z,2.55
2022-11-03T10:49:19.859Z,2.50
2022-11-03T10:51:52.619Z,2.80
2022-11-03T10:54:22.602Z,2.15
2022-11-03T10:56:50.943Z,2.50
2022-11-03T10:59:24.781Z,2.40
2022-11-03T11:01:51.572Z,2.47
2022-11-03T11:04:19.908Z,2.30
2022-11-03T11:06:47.059Z,1.80
2022-11-03T11:09:27.104Z,4.13
2022-11-03T11:12:00.982Z,1.80
2022-11-03T11:14:28.071Z,2.13
2022-11-03T11:16:56.573Z,1.90
2022-11-03T11:19:24.697Z,1.63
2022-11-03T11:21:54.060Z,1.70
2022-11-03T11:24:42.370Z,1.42
2022-11-03T11:27:41.504Z,1.75
2022-11-03T11:30:30.668Z,1.50
2022-11-03T11:33:13.117Z,1.50
2022-11-03T11:35:39.506Z,1.27
2022-11-03T11:38:43.742Z,1.45
2022-11-03T11:41:10.199Z,1.40
2022-11-03T11:43:36.680Z,1.50
2022-11-03T11:46:21.780Z,1.15
2022-11-03T11:48:57.373Z,1.30
2022-11-03T11:51:24.588Z,2.35
2022-11-03T11:54:16.228Z,1.33
2022-11-03T11:56:47.618Z,1.38
2022-11-03T11:59:25.750Z,1.90
2022-11-03T12:01:56.345Z,1.30
2022-11-03T12:04:26.853Z,1.42
2022-11-03T12:06:53.599Z,1.45
2022-11-03T12:09:22.195Z,1.23
2022-11-03T12:11:55.387Z,1.77
2022-11-03T12:14:33.158Z,1.15
2022-11-03T12:17:19.556Z,1.40
2022-11-03T12:19:53.096Z,1.48
2022-11-03T12:22:29.197Z,0.90
2022-11-03T12:25:00.698Z,1.38
2022-11-03T12:27:27.052Z,1.38
2022-11-03T12:29:55.331Z,1.30
2022-11-03T12:32:37.394Z,1.38
2022-11-03T12:35:05.316Z,1.25
2022-11-03T12:37:31.948Z,1.38
2022-11-03T12:39:58.378Z,2.03
2022-11-03T12:42:25.317Z,2.10
2022-11-03T12:44:52.394Z,1.60
2022-11-03T12:47:19.906Z,1.88
2022-11-03T12:49:46.320Z,1.42
2022-11-03T12:52:12.905Z,1.55
2022-11-03T12:54:39.741Z,1.45
2022-11-03T12:57:06.281Z,1.70
2022-11-03T12:59:32.786Z,1.40
2022-11-03T13:01:59.327Z,1.60
2022-11-03T13:04:25.893Z,2.05
2022-11-03T13:06:52.315Z,1.80
2022-11-03T13:09:18.786Z,2.42
2022-11-03T13:12:03.789Z,1.88
2022-11-03T13:14:30.562Z,1.73
2022-11-03T13:16:57.000Z,1.50
2022-11-03T13:19:23.489Z,1.98
2022-11-03T13:21:49.893Z,1.92
2022-11-03T13:24:16.332Z,1.80
2022-11-03T13:26:42.765Z,2.20
2022-11-03T13:29:09.234Z,2.28
2022-11-03T13:31:35.787Z,1.75
2022-11-03T13:34:02.455Z,1.88
2022-11-03T13:36:28.915Z,1.98
2022-11-03T13:38:55.382Z,1.40
2022-11-03T13:41:21.794Z,1.98
2022-11-03T13:43:48.212Z,1.70
2022-11-03T13:46:14.666Z,2.33
2022-11-03T13:51:27.498Z,2.00
2022-11-03T13:59:27.924Z,2.58
2022-11-03T14:04:41.754Z,2.50
2022-11-03T14:07:08.683Z,3.10
2022-11-03T14:14:51.578Z,3.13
2022-11-03T14:17:18.003Z,3.15
2022-11-03T14:19:50.230Z,2.80
2022-11-03T14:22:19.619Z,2.70
2022-11-03T14:24:46.082Z,2.97
2022-11-03T14:27:12.962Z,2.53
2022-11-03T14:29:39.513Z,2.25
2022-11-03T14:32:06.302Z,2.42
2022-11-03T14:34:33.279Z,2.60
2022-11-03T14:37:00.107Z,2.20
2022-11-03T14:39:26.962Z,3.03
2022-11-03T14:42:05.950Z,2.83
2022-11-03T14:44:38.409Z,2.70
2022-11-03T14:47:10.511Z,3.13
2022-11-03T14:49:37.508Z,2.63
2022-11-03T14:52:06.980Z,2.60
2022-11-03T14:54:34.333Z,2.70
2022-11-03T14:57:00.850Z,2.30
2022-11-03T14:59:27.438Z,2.78
2022-11-03T15:01:54.970Z,2.92
2022-11-03T15:04:23.001Z,2.80
2022-11-03T15:06:49.920Z,3.25
2022-11-03T15:09:17.081Z,2.65
2022-11-03T15:11:45.348Z,3.13
2022-11-03T15:14:12.956Z,3.95
2022-11-03T15:16:40.238Z,3.92
2022-11-03T15:19:07.911Z,2.90
2022-11-03T15:21:35.254Z,2.70
2022-11-03T15:26:49.088Z,3.10
2022-11-03T15:29:15.503Z,3.67
2022-11-03T15:31:47.147Z,2.95
2022-11-03T15:34:14.489Z,3.50
2022-11-03T15:36:41.010Z,4.20
2022-11-03T15:39:07.449Z,3.42
2022-11-03T15:41:33.876Z,4.15
2022-11-03T15:44:00.302Z,4.45
2022-11-03T15:46:26.769Z,3.63
2022-11-03T15:48:54.459Z,4.32
2022-11-03T15:51:21.019Z,3.95
2022-11-03T15:53:47.445Z,3.97
2022-11-03T15:56:13.857Z,4.40
2022-11-03T15:58:40.357Z,4.10
2022-11-03T16:01:06.952Z,4.95
2022-11-03T16:03:33.549Z,3.08
2022-11-03T16:06:00.050Z,4.53
2022-11-03T16:08:26.517Z,4.15
2022-11-03T16:10:57.547Z,4.57
2022-11-03T16:13:25.018Z,5.10
2022-11-03T16:15:51.696Z,4.80
2022-11-03T16:18:18.474Z,4.28
2022-11-03T16:20:44.908Z,4.78
2022-11-03T16:23:11.376Z,4.13
2022-11-03T16:25:37.942Z,4.78
2022-11-03T16:28:04.810Z,5.47
2022-11-03T16:30:31.674Z,4.07
2022-11-03T16:32:58.100Z,5.22
2022-11-03T16:35:24.676Z,4.72
2022-11-03T16:37:51.091Z,2.88
2022-11-03T16:40:19.618Z,3.33
2022-11-03T16:42:47.439Z,2.28
2022-11-03T16:45:19.966Z,4.93
2022-11-03T16:47:47.441Z,2.60
2022-11-03T16:50:13.982Z,3.55
2022-11-03T16:52:40.409Z,2.90
2022-11-03T16:55:07.386Z,4.38
2022-11-03T16:57:33.865Z,3.65
2022-11-03T17:00:00.334Z,3.38
2022-11-03T17:02:28.019Z,3.50
2022-11-03T17:04:54.754Z,3.47
2022-11-03T17:07:21.319Z,2.78
2022-11-03T17:09:47.722Z,4.97
2022-11-03T17:12:14.168Z,2.70
2022-11-03T17:14:40.581Z,3.65
2022-11-03T17:17:07.012Z,4.00
2022-11-03T17:19:33.425Z,5.03
2022-11-03T17:21:59.860Z,3.83
2022-11-03T17:24:26.962Z,6.10
2022-11-03T17:26:53.317Z,3.47
2022-11-03T17:29:23.656Z,5.00
2022-11-03T17:31:50.887Z,7.13
2022-11-03T17:34:22.683Z,5.20
2022-11-03T17:36:50.298Z,3.65
2022-11-03T17:41:53.666Z,5.20
2022-11-03T17:44:20.084Z,3.58
2022-11-03T17:46:46.508Z,5.95
2022-11-03T17:49:12.927Z,5.53
2022-11-03T17:51:41.927Z,5.57
2022-11-03T17:54:10.463Z,4.82
2022-11-03T17:56:36.927Z,4.18
2022-11-03T17:59:03.475Z,4.07
2022-11-03T18:01:30.094Z,5.63
2022-11-03T18:03:57.085Z,4.50
2022-11-03T18:06:23.696Z,5.70
2022-11-03T18:08:50.146Z,5.18
2022-11-03T18:11:43.981Z,4.28
2022-11-03T18:14:10.512Z,4.45
2022-11-03T18:16:37.195Z,4.80
2022-11-03T18:19:04.159Z,4.70
2022-11-03T18:21:30.784Z,6.07
2022-11-03T18:23:57.328Z,4.20
2022-11-03T18:26:25.760Z,4.40
2022-11-03T18:28:52.732Z,4.25
2022-11-03T18:31:33.728Z,6.32
2022-11-03T18:34:05.175Z,4.53
2022-11-03T18:36:33.713Z,4.85
2022-11-03T18:39:00.985Z,4.10
2022-11-03T18:41:36.230Z,3.50
2022-11-03T18:44:12.086Z,5.47
2022-11-03T18:46:38.509Z,5.20
2022-11-03T18:49:04.953Z,6.30
2022-11-03T18:51:31.905Z,6.22
2022-11-03T18:53:59.400Z,7.05
2022-11-03T18:56:27.284Z,4.35
2022-11-03T18:58:56.996Z,5.50
2022-11-03T19:01:26.807Z,7.07
2022-11-03T19:03:54.024Z,6.55
2022-11-03T19:06:20.844Z,5.80
2022-11-03T19:08:47.988Z,4.03
2022-11-03T19:11:14.864Z,6.40
2022-11-03T19:13:46.435Z,6.07
2022-11-03T19:16:19.358Z,6.57
2022-11-03T19:18:46.222Z,5.80
2022-11-03T19:21:18.339Z,4.78
2022-11-03T19:23:47.881Z,6.22
2022-11-03T19:26:27.337Z,5.72
2022-11-03T19:29:03.395Z,6.00
2022-11-03T19:31:39.917Z,4.25
2022-11-03T19:34:12.604Z,3.90
2022-11-03T19:36:40.207Z,7.10
2022-11-03T19:39:30.933Z,4.82
2022-11-03T19:42:20.012Z,7.07
2022-11-03T19:44:46.440Z,5.35
2022-11-03T19:47:17.681Z,4.60
2022-11-03T19:49:45.310Z,5.32
2022-11-03T19:52:14.878Z,6.63
2022-11-03T19:54:45.635Z,7.50
2022-11-03T19:57:13.470Z,7.15
2022-11-03T19:59:41.695Z,8.25
2022-11-03T20:02:08.227Z,7.97
2022-11-03T20:04:35.010Z,8.00
2022-11-03T20:07:02.763Z,6.88
2022-11-03T20:09:29.851Z,7.38
2022-11-03T20:11:59.707Z,7.90
2022-11-03T20:14:27.352Z,5.78
2022-11-03T20:16:56.754Z,9.20
2022-11-03T20:19:23.160Z,7.13
2022-11-03T20:21:50.588Z,7.65
2022-11-03T20:24:19.195Z,8.25
2022-11-03T20:26:45.733Z,8.35
2022-11-03T20:29:14.370Z,8.77
2022-11-03T20:31:43.311Z,6.50
2022-11-03T20:34:13.835Z,7.72
2022-11-03T20:36:40.812Z,9.00
2022-11-03T20:39:12.847Z,6.72
2022-11-03T20:41:43.911Z,6.97
2022-11-03T20:44:12.636Z,7.80
2022-11-03T20:46:39.269Z,6.05
2022-11-03T20:49:06.460Z,8.27
2022-11-03T20:51:41.170Z,7.80
2022-11-03T20:54:15.735Z,6.18
2022-11-03T20:56:42.483Z,8.50
2022-11-03T20:59:16.920Z,6.70
2022-11-03T21:01:44.741Z,10.65
2022-11-03T21:04:16.486Z,8.07
2022-11-03T21:06:43.680Z,5.47
2022-11-03T21:09:15.450Z,11.07
2022-11-03T21:14:23.346Z,8.05
2022-11-03T21:17:08.260Z,11.68
2022-11-03T21:19:53.665Z,14.50
2022-11-03T21:25:18.730Z,12.05
2022-11-03T21:27:45.541Z,12.45
2022-11-03T21:30:14.191Z,11.73
2022-11-03T21:32:41.480Z,9.05
2022-11-03T21:35:14.958Z,10.60
2022-11-03T21:37:41.544Z,7.75
2022-11-03T21:40:08.639Z,7.47
2022-11-03T21:42:53.411Z,11.07
2022-11-03T21:45:20.282Z,8.27
2022-11-03T21:48:10.042Z,10.43
2022-11-03T21:50:39.456Z,9.80
2022-11-03T21:53:07.002Z,10.95
2022-11-03T21:55:33.779Z,11.45
2022-11-03T21:58:01.827Z,8.05
2022-11-03T22:00:28.743Z,10.63
2022-11-03T22:02:55.332Z,10.77
2022-11-03T22:05:21.776Z,10.30
2022-11-03T22:07:48.231Z,8.02
2022-11-03T22:10:14.654Z,9.95
2022-11-03T22:12:41.083Z,10.23
2022-11-03T22:15:26.770Z,8.27
2022-11-03T22:17:53.216Z,5.75
2022-11-03T22:20:38.237Z,10.52
2022-11-03T22:23:23.047Z,8.48
2022-11-03T22:26:07.856Z,8.02
2022-11-03T22:28:34.254Z,8.85
2022-11-03T22:31:22.599Z,9.30
2022-11-03T22:34:07.705Z,7.85
2022-11-03T22:36:34.129Z,8.90
2022-11-03T22:39:19.035Z,7.93
2022-11-03T22:42:06.578Z,8.85
2022-11-03T22:44:51.720Z,8.75
2022-11-03T22:47:18.873Z,9.05
2022-11-03T22:49:45.564Z,8.85
2022-11-03T22:52:12.010Z,9.52
2022-11-03T22:54:38.449Z,6.63
2022-11-03T22:57:04.886Z,9.63
2022-11-03T22:59:31.299Z,8.27
2022-11-03T23:01:57.867Z,8.40
2022-11-03T23:04:24.372Z,10.73
2022-11-03T23:06:50.825Z,8.82
2022-11-03T23:09:17.555Z,9.95
2022-11-03T23:11:44.008Z,8.60
2022-11-03T23:14:11.492Z,9.35
2022-11-03T23:16:39.188Z,9.23
2022-11-03T23:19:24.827Z,7.55
2022-11-03T23:21:52.670Z,7.72
2022-11-03T23:24:42.141Z,6.32
2022-11-03T23:27:11.695Z,10.18
2022-11-03T23:29:38.172Z,9.68
2022-11-03T23:32:04.969Z,9.32
2022-11-03T23:34:31.385Z,8.20
2022-11-03T23:36:58.276Z,7.50
2022-11-03T23:39:24.671Z,5.82
2022-11-03T23:41:51.224Z,9.27
2022-11-03T23:44:17.680Z,8.45
2022-11-03T23:47:03.119Z,8.05
2022-11-03T23:49:29.819Z,8.57
2022-11-03T23:51:56.327Z,7.25
2022-11-03T23:54:22.788Z,6.57
2022-11-03T23:57:08.366Z,7.88
2022-11-03T23:59:34.964Z,7.25
